Time;durP1;ratioP1;P1;durP2;ratioP2;P2;SDS_P1;SDS_P2;PMS_P1;PMS_P2;Temp;Humidity;BMP_temperature;BMP_pressure;BME280_temperature;BME280_humidity;BME280_pressure;Samples;Min_cycle;Max_cycle;Signal;HPM_P1;HPM_P2
2022/11/02 00:01:43;;;;;;;7.88;2.30;;;;;;;12.84;68.86;100621.91;10446447;28;20051;-62
2022/11/02 00:06:45;;;;;;;5.47;1.90;;;;;;;12.84;69.11;100619.22;10446238;28;20040;-62
2022/11/02 00:11:46;;;;;;;6.07;2.20;;;;;;;12.90;68.97;100615.19;10447617;28;20776;-62
2022/11/02 00:16:48;;;;;;;8.60;2.70;;;;;;;12.67;69.24;100611.78;10472348;28;20728;-62
2022/11/02 00:21:49;;;;;;;6.30;3.65;;;;;;;12.62;68.92;100611.31;10474669;28;20730;-63
2022/11/02 00:26:52;;;;;;;8.88;4.28;;;;;;;12.64;68.69;100615.56;10460578;28;20115;-61
2022/11/02 00:31:53;;;;;;;9.20;4.15;;;;;;;12.80;68.67;100620.44;10451410;28;20052;-63
2022/11/02 00:36:55;;;;;;;8.52;3.80;;;;;;;12.75;67.59;100605.81;10445944;28;20067;-66
2022/11/02 00:41:56;;;;;;;7.53;3.40;;;;;;;12.55;68.08;100608.34;10445467;28;20525;-62
2022/11/02 00:46:57;;;;;;;6.65;3.33;;;;;;;12.36;68.77;100609.84;10445157;28;20422;-66
2022/11/02 00:51:59;;;;;;;8.02;3.83;;;;;;;12.18;69.60;100603.34;10444727;28;20761;-62
2022/11/02 00:57:00;;;;;;;6.32;3.45;;;;;;;12.16;69.44;100602.59;10444688;28;20055;-62
2022/11/02 01:02:06;;;;;;;9.07;3.67;;;;;;;12.05;70.01;100607.97;10444738;28;20115;-62
2022/11/02 01:07:08;;;;;;;7.32;3.60;;;;;;;12.01;70.21;100602.91;10435352;28;20775;-62
2022/11/02 01:12:10;;;;;;;6.43;3.80;;;;;;;11.97;70.08;100606.78;10442490;28;20040;-62
2022/11/02 01:17:11;;;;;;;6.45;3.38;;;;;;;12.00;70.29;100609.19;10441704;28;20048;-64
2022/11/02 01:22:12;;;;;;;5.20;3.15;;;;;;;12.00;70.21;100601.19;10446169;28;20055;-64
2022/11/02 01:27:14;;;;;;;9.13;3.45;;;;;;;11.87;70.61;100602.28;10443769;28;20045;-63
2022/11/02 01:32:15;;;;;;;8.32;4.15;;;;;;;11.81;71.01;100590.28;10443124;28;21454;-65
2022/11/02 01:37:16;;;;;;;6.18;3.70;;;;;;;11.81;71.38;100587.63;10438944;28;20087;-64
2022/11/02 01:42:24;;;;;;;8.00;3.78;;;;;;;11.98;71.01;100597.81;10440042;28;20048;-65
2022/11/02 01:47:31;;;;;;;10.90;3.08;;;;;;;11.80;71.40;100577.91;10438266;28;20056;-64
2022/11/02 01:52:38;;;;;;;9.63;3.15;;;;;;;12.03;70.52;100579.59;10440264;28;21251;-64
2022/11/02 01:57:42;;;;;;;6.22;3.40;;;;;;;12.01;70.87;100578.06;10440164;28;20571;-64
2022/11/02 02:02:50;;;;;;;6.82;4.18;;;;;;;12.04;70.95;100572.47;10440476;28;20053;-66
2022/11/02 02:07:53;;;;;;;5.90;3.53;;;;;;;11.89;71.50;100579.00;10441050;28;20052;-65
2022/11/02 02:12:54;;;;;;;7.00;3.53;;;;;;;11.80;72.01;100575.25;10441310;28;20434;-66
2022/11/02 02:18:11;;;;;;;7.20;3.00;;;;;;;11.98;71.68;100576.47;10442937;28;20059;-63
2022/11/02 02:23:35;;;;;;;6.53;3.30;;;;;;;11.99;72.16;100567.50;10439841;28;20049;-64
2022/11/02 02:28:40;;;;;;;;;;;;;;;11.89;71.73;100560.31;10429323;28;20142;-65
2022/11/02 02:33:54;;;;;;;8.27;4.00;;;;;;;11.73;72.54;100555.41;10437874;28;19924;-64
2022/11/02 02:39:11;;;;;;;5.47;3.50;;;;;;;11.59;73.04;100544.00;10445751;28;20055;-64
2022/11/02 02:44:19;;;;;;;9.60;3.70;;;;;;;11.53;73.55;100532.97;10469290;28;20391;-65
2022/11/02 02:49:26;;;;;;;7.93;3.05;;;;;;;11.60;73.87;100544.84;10481209;28;20173;-66
2022/11/02 02:54:35;;;;;;;7.97;2.83;;;;;;;11.71;74.67;100549.31;10447296;28;20044;-63
2022/11/02 02:59:42;;;;;;;5.03;2.20;;;;;;;11.74;74.98;100547.28;10448325;28;20041;-65
2022/11/02 03:04:44;;;;;;;6.78;2.70;;;;;;;11.83;74.87;100535.00;10464035;28;20048;-64
2022/11/02 03:09:50;;;;;;;7.22;2.15;;;;;;;11.97;74.62;100547.25;10448647;28;20144;-64
2022/11/02 03:15:10;;;;;;;5.35;2.33;;;;;;;11.98;74.06;100544.47;10462204;28;20100;-64
2022/11/02 03:20:36;;;;;;;4.38;1.92;;;;;;;12.07;74.05;100545.53;10479644;28;20044;-66
2022/11/02 03:25:59;;;;;;;7.55;1.90;;;;;;;12.12;73.91;100550.47;10477417;28;20048;-65
2022/11/02 03:31:27;;;;;;;4.90;1.67;;;;;;;12.01;73.70;100549.53;10443782;28;20072;-66
2022/11/02 03:36:36;;;;;;;8.93;2.13;;;;;;;11.92;74.21;100554.72;10440723;28;20052;-65
2022/11/02 03:41:42;;;;;;;5.35;1.88;;;;;;;11.78;74.85;100554.03;10445889;28;20059;-64
2022/11/02 03:46:45;;;;;;;4.20;1.60;;;;;;;11.83;75.12;100561.69;10447743;28;20051;-65
2022/11/02 03:51:48;;;;;;;4.82;1.70;;;;;;;11.81;75.54;100569.81;10448159;28;20828;-62
2022/11/02 03:56:55;;;;;;;6.95;2.53;;;;;;;11.91;75.20;100572.56;10446896;28;20050;-63
2022/11/02 04:01:58;;;;;;;5.68;2.13;;;;;;;11.89;75.27;100577.19;10446632;28;20198;-63
2022/11/02 04:07:00;;;;;;;7.85;2.47;;;;;;;11.81;76.02;100584.94;10445628;28;20087;-65
2022/11/02 04:28:07;;;;;;;5.07;2.15;;;;;;;12.01;75.71;100605.56;10447360;28;20067;-64
2022/11/02 04:38:41;;;;;;;7.85;2.22;;;;;;;11.72;77.05;100597.19;10447338;28;20040;-63
2022/11/02 04:43:43;;;;;;;6.80;2.15;;;;;;;11.73;77.21;100598.91;10446128;28;20545;-68
2022/11/02 04:48:45;;;;;;;6.30;2.72;;;;;;;11.75;77.61;100606.78;10448410;28;20056;-64
2022/11/02 04:53:47;;;;;;;5.28;2.38;;;;;;;11.73;77.66;100612.22;10450036;28;20040;-64
2022/11/02 04:58:51;;;;;;;9.70;2.65;;;;;;;11.64;78.28;100611.13;10497893;28;20052;-65
2022/11/02 05:03:54;;;;;;;6.38;2.40;;;;;;;11.66;77.69;100627.88;10486327;28;20064;-63
2022/11/02 05:08:56;;;;;;;12.23;3.23;;;;;;;11.70;78.23;100624.97;10507864;28;20052;-63
2022/11/02 05:13:57;;;;;;;7.18;2.92;;;;;;;11.76;78.16;100629.81;10502358;28;20048;-64
2022/11/02 05:18:58;;;;;;;5.45;2.45;;;;;;;11.72;77.61;100629.19;10470812;28;20051;-63
2022/11/02 05:24:00;;;;;;;6.93;2.20;;;;;;;11.68;78.71;100639.28;10460988;28;20045;-64
2022/11/02 05:29:01;;;;;;;7.22;3.13;;;;;;;11.74;78.17;100634.41;10477212;28;20045;-63
2022/11/02 05:34:02;;;;;;;6.72;3.15;;;;;;;11.70;78.80;100640.97;10437122;28;20041;-63
2022/11/02 05:39:04;;;;;;;5.95;2.65;;;;;;;11.64;78.67;100648.47;10439297;28;20075;-61
2022/11/02 05:44:05;;;;;;;8.30;2.60;;;;;;;11.53;79.29;100651.16;10436371;28;20399;-61
2022/11/02 05:49:06;;;;;;;7.47;2.20;;;;;;;11.52;79.95;100653.94;10399741;28;20052;-62
2022/11/02 05:54:08;;;;;;;8.77;3.22;;;;;;;11.59;79.98;100655.13;10403718;28;20505;-62
2022/11/02 05:59:09;;;;;;;5.70;2.28;;;;;;;11.38;80.22;100653.19;10404028;28;20048;-64
2022/11/02 06:04:10;;;;;;;9.13;3.08;;;;;;;11.24;81.48;100666.72;10404508;28;20052;-64
2022/11/02 06:09:12;;;;;;;4.03;2.40;;;;;;;11.25;81.40;100679.94;10406687;28;20509;-63
2022/11/02 06:14:13;;;;;;;5.03;2.35;;;;;;;11.32;81.22;100689.16;10405345;28;20056;-62
2022/11/02 06:19:14;;;;;;;12.10;3.70;;;;;;;11.28;81.18;100686.84;10403019;28;20060;-63
2022/11/02 06:24:16;;;;;;;8.18;2.30;;;;;;;11.31;81.01;100695.44;10404323;28;20584;-63
2022/11/02 06:29:17;;;;;;;8.90;2.80;;;;;;;11.35;80.94;100696.06;10407201;28;20285;-64
2022/11/02 06:34:18;;;;;;;9.40;3.47;;;;;;;11.37;80.86;100709.28;10402931;28;20487;-62
2022/11/02 06:39:20;;;;;;;7.30;2.78;;;;;;;11.48;80.43;100711.97;10414150;28;20055;-63
2022/11/02 06:44:22;;;;;;;7.25;2.83;;;;;;;11.44;80.59;100710.47;10388680;28;20049;-67
2022/11/02 06:49:24;;;;;;;6.50;2.58;;;;;;;11.39;80.50;100726.00;10402257;28;20485;-63
2022/11/02 06:54:25;;;;;;;6.40;2.67;;;;;;;11.34;81.11;100720.19;10404964;28;20051;-68
2022/11/02 06:59:26;;;;;;;5.78;2.75;;;;;;;11.21;81.08;100726.41;10390371;28;20063;-65
2022/11/02 07:04:28;;;;;;;7.20;2.78;;;;;;;11.25;81.52;100746.53;10393673;28;20466;-63
2022/11/02 07:09:29;;;;;;;8.52;2.83;;;;;;;11.30;81.14;100756.84;10387956;28;20584;-63
2022/11/02 07:14:30;;;;;;;4.85;2.55;;;;;;;11.48;80.78;100767.94;10397681;28;20052;-66
2022/11/02 07:19:32;;;;;;;8.75;2.72;;;;;;;11.63;79.90;100773.91;10418529;28;20056;-64
2022/11/02 07:24:33;;;;;;;5.65;2.63;;;;;;;11.59;79.80;100778.66;10392931;28;20052;-64
2022/11/02 07:29:35;;;;;;;8.05;2.50;;;;;;;11.72;79.67;100793.69;10382617;28;20873;-65
2022/11/02 07:34:36;;;;;;;9.43;2.67;;;;;;;11.84;78.81;100788.28;10389535;28;20613;-65
2022/11/02 07:39:37;;;;;;;6.60;2.90;;;;;;;11.96;78.59;100797.16;10387948;28;20117;-64
2022/11/02 07:44:39;;;;;;;8.50;3.05;;;;;;;12.02;78.15;100796.72;10400753;28;20053;-62
2022/11/02 07:49:40;;;;;;;10.73;3.78;;;;;;;12.14;77.10;100789.53;10398455;28;20209;-62
2022/11/02 07:54:41;;;;;;;10.75;3.20;;;;;;;12.20;76.78;100799.75;10395606;28;20040;-63
2022/11/02 07:59:45;;;;;;;10.60;2.83;;;;;;;12.38;75.99;100801.91;10404003;28;20064;-62
2022/11/02 08:04:46;;;;;;;5.60;2.58;;;;;;;12.48;75.66;100799.38;10405366;28;20493;-62
2022/11/02 08:09:47;;;;;;;7.03;2.38;;;;;;;12.54;75.15;100814.91;10402898;28;21363;-63
2022/11/02 08:14:49;;;;;;;8.07;3.28;;;;;;;12.64;74.83;100813.22;10398457;28;20040;-62
2022/11/02 08:19:50;;;;;;;4.72;2.42;;;;;;;12.57;74.54;100817.34;10398585;28;20040;-64
2022/11/02 08:24:51;;;;;;;6.25;2.60;;;;;;;12.63;74.55;100822.19;10399948;28;20525;-65
2022/11/02 08:29:53;;;;;;;5.75;2.20;;;;;;;12.67;74.25;100818.28;10402621;28;20052;-64
2022/11/02 08:34:54;;;;;;;9.25;2.38;;;;;;;12.94;73.30;100830.41;10408019;28;20138;-63
2022/11/02 08:39:55;;;;;;;8.43;2.90;;;;;;;13.28;71.87;100832.97;10408520;28;20838;-67
2022/11/02 08:44:57;;;;;;;6.93;2.17;;;;;;;13.89;69.90;100810.09;10421400;28;20041;-64
2022/11/02 08:49:58;;;;;;;7.22;1.73;;;;;;;14.33;67.50;100824.97;10420215;28;20116;-65
2022/11/02 08:55:00;;;;;;;9.25;2.10;;;;;;;14.03;68.13;100817.78;10431979;28;21211;-64
2022/11/02 09:00:02;;;;;;;9.10;2.65;;;;;;;14.07;68.44;100819.22;10413395;28;20323;-64
2022/11/02 09:05:04;;;;;;;7.35;1.80;;;;;;;14.68;66.26;100817.50;10394740;28;20135;-63
2022/11/02 09:10:06;;;;;;;10.35;2.63;;;;;;;15.18;63.96;100814.78;10391340;28;20055;-63
2022/11/02 09:15:08;;;;;;;5.85;2.15;;;;;;;15.62;61.30;100824.25;10401073;28;20049;-65
2022/11/02 09:20:09;;;;;;;5.93;1.77;;;;;;;16.43;59.91;100839.94;10388095;28;20048;-64
2022/11/02 09:25:12;;;;;;;7.97;1.88;;;;;;;17.30;55.94;100835.09;10387874;28;20124;-63
2022/11/02 09:30:13;;;;;;;8.15;2.33;;;;;;;17.21;55.57;100833.31;10389890;28;20420;-63
2022/11/02 09:35:14;;;;;;;6.57;1.92;;;;;;;16.75;56.24;100844.88;10424484;28;20048;-65
2022/11/02 09:40:20;;;;;;;7.97;1.70;;;;;;;17.45;53.18;100846.16;10385058;28;21949;-63
2022/11/02 09:45:22;;;;;;;6.78;1.60;;;;;;;17.58;52.16;100849.31;10379383;28;20071;-65
2022/11/02 09:50:32;;;;;;;8.30;2.00;;;;;;;16.91;53.58;100846.09;10383069;28;20136;-64
2022/11/02 09:55:36;;;;;;;6.93;1.50;;;;;;;17.81;51.46;100840.75;10388637;28;20057;-62
2022/11/02 10:00:40;;;;;;;6.43;1.60;;;;;;;17.88;50.40;100844.50;10384397;28;20138;-64
2022/11/02 10:05:51;;;;;;;3.38;1.20;;;;;;;17.53;50.04;100856.16;10383837;28;20063;-63
2022/11/02 10:11:17;;;;;;;5.95;1.63;;;;;;;18.33;48.05;100859.66;10336258;22;20046;-61
2022/11/02 10:16:23;;;;;;;6.28;1.30;;;;;;;18.49;47.25;100868.81;10225090;28;20062;-62
2022/11/02 10:21:31;;;;;;;7.85;2.60;;;;;;;18.04;48.22;100869.88;10271946;28;20054;-62
2022/11/02 10:26:36;;;;;;;4.72;1.98;;;;;;;19.50;45.37;100875.25;10263391;28;20073;-62
2022/11/02 10:31:37;;;;;;;5.50;1.75;;;;;;;18.03;48.36;100882.53;10235891;28;20664;-63
2022/11/02 10:37:06;;;;;;;9.25;1.58;;;;;;;16.94;50.17;100872.69;10262780;28;20057;-62
2022/11/02 10:42:39;;;;;;;5.22;1.75;;;;;;;16.90;48.70;100866.78;10284742;28;20509;-62
2022/11/02 10:48:06;;;;;;;4.07;1.13;;;;;;;17.69;46.87;100868.91;10269650;28;20061;-64
2022/11/02 10:53:13;;;;;;;7.97;1.95;;;;;;;17.29;48.83;100855.78;10263925;28;20162;-62
2022/11/02 10:58:39;;;;;;;3.65;1.27;;;;;;;24.90;34.20;100862.22;10267473;28;20053;-62
2022/11/02 11:03:55;;;;;;;5.05;1.42;;;;;;;28.84;26.52;100853.53;10263937;28;20581;-62
2022/11/02 11:09:19;;;;;;;3.97;1.30;;;;;;;31.00;24.37;100847.78;10265049;28;20050;-63
2022/11/02 11:14:22;;;;;;;5.45;1.10;;;;;;;32.91;21.44;100846.13;10257321;28;20094;-63
2022/11/02 11:19:51;;;;;;;3.97;1.00;;;;;;;32.78;21.36;100842.66;10288834;28;20064;-65
2022/11/02 11:25:23;;;;;;;3.67;1.17;;;;;;;31.73;22.04;100840.59;10282999;28;20410;-65
2022/11/02 11:30:35;;;;;;;3.53;1.02;;;;;;;26.31;27.74;100852.34;10262848;28;20078;-64
2022/11/02 11:35:56;;;;;;;3.70;0.95;;;;;;;23.46;31.99;100839.00;10264437;28;20579;-64
2022/11/02 11:40:58;;;;;;;3.90;1.93;;;;;;;22.22;34.96;100837.03;10293870;28;20120;-64
2022/11/02 11:46:02;;;;;;;3.00;1.23;;;;;;;28.35;25.30;100828.81;10266050;28;20163;-64
2022/11/02 11:51:35;;;;;;;5.13;1.30;;;;;;;29.32;24.53;100840.88;10260912;28;20083;-64
2022/11/02 11:56:37;;;;;;;4.43;1.65;;;;;;;29.39;24.65;100839.72;10255981;28;20084;-63
2022/11/02 12:01:39;;;;;;;3.70;1.20;;;;;;;30.21;22.88;100823.59;10262951;28;20604;-66
2022/11/02 12:06:54;;;;;;;3.13;1.15;;;;;;;26.19;27.13;100815.84;10263414;28;20050;-65
2022/11/02 12:12:23;;;;;;;6.07;1.77;;;;;;;32.32;21.41;100811.72;10259378;28;20049;-65
2022/11/02 12:17:45;;;;;;;6.03;1.85;;;;;;;34.11;18.86;100797.19;10261409;28;20053;-66
2022/11/02 12:23:17;;;;;;;3.58;0.90;;;;;;;28.85;24.06;100800.41;10268011;28;20058;-65
2022/11/02 12:28:28;;;;;;;4.95;1.15;;;;;;;27.10;26.42;100790.28;10321215;27;20077;-63
2022/11/02 12:34:04;;;;;;;4.25;1.42;;;;;;;33.18;20.23;100796.47;10288183;27;20892;-63
2022/11/02 12:39:44;;;;;;;4.75;1.48;;;;;;;33.85;17.58;100796.22;10265233;28;20816;-66
2022/11/02 12:45:25;;;;;;;4.22;1.17;;;;;;;35.98;16.39;100803.66;10266283;28;20069;-66
2022/11/02 12:50:51;;;;;;;4.30;1.42;;;;;;;36.00;16.33;100808.91;10262652;28;20909;-66
2022/11/02 12:55:56;;;;;;;4.35;1.25;;;;;;;31.09;20.49;100824.34;10261585;28;20050;-66
2022/11/02 13:01:06;;;;;;;5.65;1.17;;;;;;;31.55;20.48;100805.09;10252398;28;20171;-65
2022/11/02 13:06:18;;;;;;;4.35;1.27;;;;;;;33.71;18.57;100785.59;10260593;28;20317;-66
2022/11/02 13:11:30;;;;;;;3.95;1.35;;;;;;;35.38;16.59;100773.81;10258484;28;20057;-66
2022/11/02 13:16:53;;;;;;;4.05;1.15;;;;;;;34.93;17.03;100777.38;10266956;28;20839;-66
2022/11/02 13:21:57;;;;;;;3.33;1.08;;;;;;;35.03;16.30;100786.50;10262524;28;20140;-66
2022/11/02 13:27:03;;;;;;;3.75;1.10;;;;;;;33.11;18.11;100787.59;10262816;28;20061;-66
2022/11/02 13:32:45;;;;;;;4.00;1.40;;;;;;;33.09;18.04;100782.31;10331994;27;20123;-68
2022/11/02 13:37:54;;;;;;;5.03;1.13;;;;;;;32.30;19.59;100771.78;10263246;28;20054;-68
2022/11/02 13:43:05;;;;;;;5.43;1.15;;;;;;;34.76;17.69;100770.13;10264645;28;20053;-68
2022/11/02 13:48:26;;;;;;;3.97;1.45;;;;;;;34.42;16.91;100767.81;10267663;28;20049;-69
2022/11/02 13:53:36;;;;;;;3.45;0.80;;;;;;;33.21;17.58;100759.28;10267052;28;20053;-69
2022/11/02 13:58:45;;;;;;;2.60;0.85;;;;;;;33.47;17.34;100752.88;10272151;28;20117;-67
2022/11/02 14:03:53;;;;;;;2.83;1.42;;;;;;;33.10;17.54;100750.06;10263678;28;20183;-70
2022/11/02 14:09:06;;;;;;;2.83;0.65;;;;;;;31.87;18.74;100768.69;10270045;28;20061;-66
2022/11/02 14:14:10;;;;;;;3.30;0.93;;;;;;;29.84;20.93;100764.31;10264242;28;20632;-65
2022/11/02 14:19:20;;;;;;;4.13;1.23;;;;;;;28.09;22.58;100759.63;10251230;28;20407;-64
2022/11/02 14:24:31;;;;;;;5.43;0.93;;;;;;;25.46;25.62;100775.81;10242960;28;20053;-63
2022/11/02 14:29:43;;;;;;;4.88;1.02;;;;;;;25.55;25.78;100774.56;10295454;28;20133;-64
2022/11/02 14:35:22;;;;;;;4.30;0.95;;;;;;;27.40;24.37;100783.38;10266353;28;20159;-64
2022/11/02 14:40:35;;;;;;;5.85;1.30;;;;;;;27.02;24.14;100776.06;10266031;28;20058;-64
2022/11/02 14:45:49;;;;;;;3.75;0.90;;;;;;;25.79;26.34;100777.69;10291340;28;20045;-64
2022/11/02 14:51:15;;;;;;;3.35;1.23;;;;;;;22.73;30.34;100766.59;10257439;28;20056;-63
2022/11/02 14:56:16;;;;;;;4.65;1.27;;;;;;;21.03;33.06;100767.09;10256025;28;20561;-63
2022/11/02 15:01:18;;;;;;;4.28;1.10;;;;;;;20.03;34.81;100782.06;10262950;28;20050;-63
2022/11/02 15:06:25;;;;;;;5.78;1.23;;;;;;;19.46;36.49;100774.03;10262771;28;20054;-62
2022/11/02 15:11:48;;;;;;;6.30;1.60;;;;;;;18.82;37.67;100769.19;10261963;28;20054;-62
2022/11/02 15:16:49;;;;;;;5.75;1.42;;;;;;;18.17;39.10;100782.25;10253184;28;20061;-63
2022/11/02 15:21:52;;;;;;;4.88;1.30;;;;;;;18.11;39.75;100773.97;10262008;28;20065;-62
2022/11/02 15:26:59;;;;;;;5.53;1.25;;;;;;;17.74;39.90;100765.13;10263061;28;20054;-62
2022/11/02 15:32:02;;;;;;;3.15;1.13;;;;;;;17.35;40.55;100759.28;10302674;28;20052;-62
2022/11/02 15:37:04;;;;;;;5.80;1.85;;;;;;;17.17;40.51;100760.13;10256029;28;20057;-63
2022/11/02 15:42:34;;;;;;;5.78;1.67;;;;;;;17.03;41.30;100777.66;10227826;28;20047;-64
2022/11/02 15:47:54;;;;;;;3.55;1.10;;;;;;;16.86;41.76;100775.75;10260215;28;20251;-63
2022/11/02 15:52:59;;;;;;;3.47;1.45;;;;;;;16.59;42.74;100767.59;10263587;28;20060;-63
2022/11/02 15:58:30;;;;;;;;;;;;;;;16.53;42.90;100757.44;10258781;28;20922;-62
2022/11/02 16:03:32;;;;;;;6.15;2.03;;;;;;;16.38;44.06;100758.94;10265998;28;19956;-63
2022/11/02 16:08:36;;;;;;;4.20;1.88;;;;;;;16.28;44.01;100758.13;10271524;28;20049;-65
2022/11/02 16:13:38;;;;;;;8.25;2.13;;;;;;;16.18;44.18;100759.03;10271457;28;20073;-63
2022/11/02 16:19:00;;;;;;;5.82;1.92;;;;;;;16.00;44.62;100756.28;10270675;28;20068;-62
2022/11/02 16:24:01;;;;;;;6.28;1.90;;;;;;;15.97;45.16;100751.16;10271418;28;20666;-65
2022/11/02 16:29:07;;;;;;;7.70;2.03;;;;;;;15.67;45.97;100738.78;10271003;28;20054;-64
2022/11/02 16:34:20;;;;;;;5.22;2.00;;;;;;;15.64;46.08;100744.47;10272836;28;20810;-63
2022/11/02 16:39:38;;;;;;;5.83;1.93;;;;;;;15.59;45.99;100736.84;10266888;28;20042;-67
2022/11/02 16:44:42;;;;;;;7.18;1.73;;;;;;;15.51;46.75;100750.97;10263544;28;20163;-65
2022/11/02 16:49:56;;;;;;;9.90;2.65;;;;;;;15.51;47.47;100750.97;10267360;28;20526;-68
2022/11/02 16:54:58;;;;;;;7.28;2.50;;;;;;;15.46;47.71;100741.66;10267963;28;21558;-64
2022/11/02 17:00:03;;;;;;;6.07;2.22;;;;;;;15.35;47.94;100745.34;10307487;28;22615;-62
2022/11/02 17:05:17;;;;;;;8.77;2.42;;;;;;;15.28;48.35;100744.22;10263270;28;21226;-64
2022/11/02 17:10:22;;;;;;;7.38;2.67;;;;;;;15.22;48.61;100736.75;10274627;28;20046;-63
2022/11/02 17:15:26;;;;;;;8.98;2.35;;;;;;;15.13;48.88;100731.25;10262460;28;20065;-66
2022/11/02 17:20:27;;;;;;;9.60;3.03;;;;;;;15.03;49.48;100741.97;10261112;28;20072;-63
2022/11/02 17:25:47;;;;;;;8.20;3.47;;;;;;;14.89;49.86;100734.34;10262514;28;20851;-64
2022/11/02 17:30:50;;;;;;;6.07;2.90;;;;;;;14.82;51.19;100733.22;10269580;28;20049;-63
2022/11/02 17:35:54;;;;;;;7.68;3.53;;;;;;;14.88;51.64;100742.50;10275650;28;20056;-64
2022/11/02 17:40:58;;;;;;;8.50;3.80;;;;;;;14.89;51.98;100738.84;10297230;27;20057;-63
2022/11/02 17:46:00;;;;;;;7.53;2.10;;;;;;;14.93;51.93;100745.63;10331226;27;20054;-64
2022/11/02 17:51:01;;;;;;;4.47;2.30;;;;;;;14.91;52.40;100744.94;10271118;28;20483;-62
2022/11/02 17:56:03;;;;;;;6.55;2.35;;;;;;;14.89;52.59;100742.38;10264374;28;20495;-63
2022/11/02 18:01:04;;;;;;;7.78;2.80;;;;;;;14.75;52.44;100742.78;10260303;28;20053;-64
2022/11/02 18:06:06;;;;;;;7.95;3.65;;;;;;;14.73;53.07;100734.91;10264782;28;21021;-63
2022/11/02 18:11:07;;;;;;;5.82;2.85;;;;;;;14.61;54.47;100730.66;10265001;28;20479;-62
2022/11/02 18:16:09;;;;;;;7.82;3.83;;;;;;;14.59;52.99;100732.56;10263400;28;20812;-62
2022/11/02 18:21:11;;;;;;;6.40;3.58;;;;;;;14.42;53.02;100734.94;10271675;28;20675;-64
2022/11/02 18:26:12;;;;;;;9.90;3.30;;;;;;;14.38;55.60;100720.13;10280725;28;20054;-64
2022/11/02 18:31:14;;;;;;;7.38;3.25;;;;;;;14.52;54.13;100726.94;10273692;28;20777;-63
2022/11/02 18:36:15;;;;;;;8.75;3.90;;;;;;;14.40;53.73;100728.03;10265972;28;20765;-63
2022/11/02 18:41:29;;;;;;;7.70;4.43;;;;;;;14.22;54.39;100726.00;10269538;28;20056;-63
2022/11/02 18:46:31;;;;;;;9.95;4.45;;;;;;;14.19;55.20;100717.41;10281486;28;20083;-63
2022/11/02 18:51:32;;;;;;;8.82;6.00;;;;;;;14.15;56.32;100719.47;10299554;28;20093;-64
2022/11/02 18:56:34;;;;;;;11.73;6.72;;;;;;;14.06;55.31;100726.50;10300684;28;20064;-64
2022/11/02 19:01:35;;;;;;;12.90;6.82;;;;;;;14.04;57.34;100723.13;10266332;28;20060;-64
2022/11/02 19:12:04;;;;;;;9.98;5.57;;;;;;;13.82;56.34;100707.25;10347828;28;20062;-64
2022/11/02 19:17:07;;;;;;;9.75;6.00;;;;;;;13.67;58.33;100706.75;10296731;28;20050;-64
2022/11/02 19:22:11;;;;;;;10.35;5.97;;;;;;;13.71;57.20;100710.84;10232169;28;20050;-64
2022/11/02 19:27:15;;;;;;;11.13;6.32;;;;;;;13.68;59.54;100692.41;10261150;28;20054;-64
2022/11/02 19:32:17;;;;;;;13.82;5.95;;;;;;;13.58;59.29;100700.34;10273157;28;20582;-64
2022/11/02 19:37:19;;;;;;;10.90;6.32;;;;;;;13.52;57.91;100691.03;10275066;28;20798;-65
2022/11/02 19:42:20;;;;;;;9.27;5.47;;;;;;;13.12;58.97;100693.53;10287828;28;20106;-64
2022/11/02 19:47:21;;;;;;;11.73;5.45;;;;;;;13.20;59.79;100686.56;10309956;28;20045;-63
2022/11/02 19:52:23;;;;;;;9.10;5.05;;;;;;;13.11;61.30;100676.66;10315460;28;20157;-64
2022/11/02 19:57:24;;;;;;;13.02;5.63;;;;;;;12.99;59.15;100688.41;10296692;28;20053;-63
2022/11/02 20:02:33;;;;;;;9.98;6.40;;;;;;;12.90;60.02;100673.97;10281431;28;20475;-64
2022/11/02 20:07:34;;;;;;;13.00;6.90;;;;;;;12.77;60.42;100689.31;10285477;28;20065;-65
2022/11/02 20:12:36;;;;;;;11.23;6.70;;;;;;;12.92;62.45;100685.38;10308706;28;20080;-64
2022/11/02 20:17:37;;;;;;;9.65;6.03;;;;;;;12.94;60.47;100677.22;10317728;28;20053;-63
2022/11/02 20:22:58;;;;;;;10.35;5.90;;;;;;;12.84;62.89;100679.84;10310192;28;20075;-63
2022/11/02 20:28:00;;;;;;;12.50;7.40;;;;;;;12.62;61.18;100686.94;10300258;28;20430;-62
2022/11/02 20:33:01;;;;;;;13.48;7.22;;;;;;;12.45;61.96;100674.13;10283232;28;20054;-63
2022/11/02 20:38:02;;;;;;;14.88;8.18;;;;;;;12.31;61.92;100684.13;10276223;28;20100;-62
2022/11/02 20:43:05;;;;;;;8.57;6.10;;;;;;;12.15;62.27;100683.66;10278280;28;20042;-62
2022/11/02 20:48:07;;;;;;;9.07;5.47;;;;;;;12.15;62.14;100672.97;10312632;28;20053;-63
2022/11/02 20:53:09;;;;;;;10.48;6.53;;;;;;;12.02;63.06;100663.31;10312009;28;20111;-64
2022/11/02 20:58:10;;;;;;;11.70;6.32;;;;;;;11.95;63.13;100678.09;10311843;28;20652;-65
2022/11/02 21:03:12;;;;;;;13.05;6.85;;;;;;;11.78;64.89;100686.53;10315168;28;20048;-62
2022/11/02 21:08:14;;;;;;;13.65;6.25;;;;;;;11.78;63.61;100675.88;10317510;28;20164;-64
2022/11/02 21:18:36;;;;;;;10.77;6.72;;;;;;;11.62;64.55;100677.09;10532194;27;20047;-62
2022/11/02 21:23:37;;;;;;;10.82;5.90;;;;;;;11.49;65.22;100668.34;10530205;27;20047;-63
2022/11/02 21:28:41;;;;;;;8.13;5.90;;;;;;;11.57;64.88;100657.91;10531088;27;20051;-63
2022/11/02 21:33:43;;;;;;;8.80;5.00;;;;;;;11.53;65.24;100656.47;10325532;28;20046;-63
2022/11/02 21:38:45;;;;;;;10.65;5.72;;;;;;;11.58;64.76;100646.28;10348830;28;20486;-63
2022/11/02 21:43:50;;;;;;;12.77;6.32;;;;;;;11.37;65.49;100648.81;10358883;28;20048;-63
2022/11/02 21:48:54;;;;;;;10.57;5.57;;;;;;;11.46;65.77;100633.94;10322641;28;20133;-64
2022/11/02 21:53:55;;;;;;;7.93;4.88;;;;;;;11.86;64.86;100641.47;10333024;28;20045;-64
2022/11/02 21:58:57;;;;;;;9.60;5.60;;;;;;;11.64;64.29;100624.47;10358714;28;20053;-66
2022/11/02 22:03:59;;;;;;;8.77;4.90;;;;;;;11.44;65.40;100633.19;10354195;28;20053;-64
2022/11/02 22:09:00;;;;;;;10.15;4.60;;;;;;;11.34;65.77;100629.56;10344079;28;20052;-63
2022/11/02 22:14:02;;;;;;;11.25;5.45;;;;;;;11.24;66.11;100613.41;10218061;22;20077;-63
2022/11/02 22:19:09;;;;;;;8.82;5.10;;;;;;;11.26;66.54;100616.81;10213308;28;20065;-63
2022/11/02 22:24:11;;;;;;;8.70;5.35;;;;;;;11.21;66.06;100626.97;10214043;28;20058;-62
2022/11/02 22:29:12;;;;;;;8.75;4.38;;;;;;;11.13;67.63;100616.94;10211350;28;20054;-63
2022/11/02 22:34:14;;;;;;;11.82;5.95;;;;;;;11.36;66.02;100600.97;10209981;28;20069;-64
2022/11/02 22:39:15;;;;;;;11.98;6.10;;;;;;;11.46;65.72;100591.28;10211722;28;20233;-64
2022/11/02 22:44:19;;;;;;;9.30;5.30;;;;;;;11.46;65.69;100586.78;10226675;28;20059;-63
2022/11/02 22:49:21;;;;;;;6.00;3.97;;;;;;;11.23;66.51;100595.72;10229611;28;20431;-63
2022/11/02 22:54:22;;;;;;;11.05;5.38;;;;;;;11.14;66.79;100582.16;10220361;28;20051;-63
2022/11/02 22:59:23;;;;;;;11.98;5.95;;;;;;;11.07;67.05;100585.44;10211654;28;20062;-63
2022/11/02 23:04:25;;;;;;;9.25;4.97;;;;;;;11.10;67.44;100574.53;10205008;28;20467;-64
2022/11/02 23:09:26;;;;;;;10.48;5.13;;;;;;;11.09;67.30;100571.03;10212174;28;20051;-63
2022/11/02 23:14:27;;;;;;;10.20;4.43;;;;;;;11.30;67.09;100560.50;10213223;28;20062;-63
2022/11/02 23:19:29;;;;;;;9.43;4.60;;;;;;;11.14;67.06;100544.03;10222998;28;20066;-63
2022/11/02 23:40:31;;;;;;;8.95;4.45;;;;;;;11.39;66.99;100564.25;10218152;28;20054;-63
2022/11/02 23:45:33;;;;;;;9.77;4.93;;;;;;;11.21;66.78;100555.88;10215529;28;20062;-62
